Time;durP1;ratioP1;P1;durP2;ratioP2;P2;SDS_P1;SDS_P2;PMS_P1;PMS_P2;Temp;Humidity;BMP_temperature;BMP_pressure;BME280_temperature;BME280_humidity;BME280_pressure;Samples;Min_cycle;Max_cycle;Signal;HPM_P1;HPM_P2
2022/01/06 00:02:01;;;;;;;2.15;1.08;;;0.70;99.90;;;;;;5094959;28;20230;-71
2022/01/06 00:04:27;;;;;;;1.23;1.23;;;0.70;99.90;;;;;;5094529;28;20720;-71
2022/01/06 00:06:54;;;;;;;1.15;1.15;;;0.70;99.90;;;;;;5094735;28;20279;-71
2022/01/06 00:09:21;;;;;;;1.23;1.23;;;0.70;99.90;;;;;;5094719;28;20274;-71
2022/01/06 00:11:48;;;;;;;0.90;0.90;;;0.70;99.90;;;;;;5094700;28;20282;-70
2022/01/06 06:15:26;;;;;;;1.30;1.30;;;0.80;99.90;;;;;;6163695;22;20171;-68
2022/01/06 06:17:53;;;;;;;1.20;1.20;;;0.80;99.90;;;;;;5076427;28;20211;-69
2022/01/06 06:20:20;;;;;;;1.30;1.30;;;0.80;99.90;;;;;;5076378;28;20224;-69
2022/01/06 06:22:47;;;;;;;1.27;1.27;;;0.70;99.90;;;;;;5076436;28;20733;-69
2022/01/06 06:25:14;;;;;;;1.20;1.20;;;0.80;99.90;;;;;;5076578;28;20306;-69
2022/01/06 06:27:41;;;;;;;1.00;1.00;;;0.80;99.90;;;;;;5076616;28;20310;-69
2022/01/06 06:30:09;;;;;;;1.15;1.15;;;0.80;99.90;;;;;;5077199;28;20279;-69
2022/01/06 06:32:37;;;;;;;1.10;1.10;;;0.80;99.90;;;;;;5076584;28;20200;-69
2022/01/06 06:35:06;;;;;;;1.25;1.25;;;0.80;99.90;;;;;;5076450;28;20279;-69
2022/01/06 06:37:33;;;;;;;1.40;1.40;;;0.80;99.90;;;;;;5076639;28;20285;-70
2022/01/06 06:40:00;;;;;;;1.13;1.13;;;0.80;99.90;;;;;;5076017;28;20631;-69
2022/01/06 06:42:28;;;;;;;1.15;1.15;;;0.80;99.90;;;;;;5076146;28;20204;-69
2022/01/06 06:44:55;;;;;;;1.08;1.08;;;0.80;99.90;;;;;;5076810;28;20266;-69
2022/01/06 06:47:21;;;;;;;2.55;1.65;;;0.70;99.90;;;;;;5076431;28;20291;-69
2022/01/06 06:49:50;;;;;;;1.35;1.35;;;0.70;99.90;;;;;;5076373;28;20287;-70
2022/01/06 06:52:17;;;;;;;1.30;1.30;;;0.70;99.90;;;;;;5076169;28;20228;-69
2022/01/06 06:54:44;;;;;;;1.40;1.40;;;0.70;99.90;;;;;;5076188;28;20302;-69
2022/01/06 06:57:11;;;;;;;1.00;1.00;;;0.60;99.90;;;;;;5075802;28;20746;-69
2022/01/06 06:59:38;;;;;;;1.25;1.25;;;0.60;99.90;;;;;;5075974;28;20303;-69
2022/01/06 07:02:05;;;;;;;1.40;1.30;;;0.60;99.90;;;;;;5076003;28;20291;-69
2022/01/06 07:04:32;;;;;;;1.27;1.27;;;0.60;99.90;;;;;;5075989;28;20299;-69
2022/01/06 07:07:00;;;;;;;1.33;1.33;;;0.70;99.90;;;;;;5075785;28;20254;-69
2022/01/06 07:09:27;;;;;;;1.20;1.20;;;0.70;99.90;;;;;;5075643;28;20227;-69
2022/01/06 07:11:54;;;;;;;1.30;1.30;;;0.70;99.90;;;;;;5075429;28;20645;-69
2022/01/06 07:14:21;;;;;;;1.23;1.23;;;0.70;99.90;;;;;;5075337;28;20295;-69
2022/01/06 07:16:47;;;;;;;1.30;1.30;;;0.70;99.90;;;;;;5075536;28;20238;-69
2022/01/06 07:19:15;;;;;;;1.48;1.38;;;0.70;99.90;;;;;;5075742;28;20311;-69
2022/01/06 07:21:41;;;;;;;1.25;1.25;;;0.70;99.90;;;;;;5075773;28;20294;-69
2022/01/06 07:24:10;;;;;;;1.13;1.10;;;0.70;99.90;;;;;;5075518;28;20291;-69
2022/01/06 07:26:37;;;;;;;1.08;1.08;;;0.70;99.90;;;;;;5075533;28;20622;-69
2022/01/06 07:29:03;;;;;;;1.20;1.20;;;0.70;99.90;;;;;;5075709;28;20282;-69
2022/01/06 07:31:30;;;;;;;1.20;1.20;;;0.80;99.90;;;;;;5075455;28;20210;-69
2022/01/06 07:33:57;;;;;;;1.10;1.10;;;0.80;99.90;;;;;;5075333;28;20291;-69
2022/01/06 07:36:24;;;;;;;0.95;0.95;;;0.80;99.90;;;;;;5075805;28;20278;-69
2022/01/06 07:38:51;;;;;;;1.27;1.27;;;0.80;99.90;;;;;;5075963;28;20291;-69
2022/01/06 07:41:19;;;;;;;1.00;1.00;;;0.90;99.90;;;;;;5076167;28;20306;-69
2022/01/06 07:43:46;;;;;;;1.30;1.30;;;0.90;99.90;;;;;;5075319;28;20295;-69
2022/01/06 07:46:13;;;;;;;1.17;1.17;;;1.00;99.90;;;;;;5075050;28;20658;-69
2022/01/06 07:48:53;;;;;;;1.00;1.00;;;1.00;99.90;;;;;;5075185;28;20730;-69
2022/01/06 07:51:19;;;;;;;1.10;1.10;;;1.10;99.90;;;;;;5075112;28;20191;-69
2022/01/06 07:53:46;;;;;;;1.38;1.10;;;1.10;99.90;;;;;;5075072;28;20295;-69
2022/01/06 07:56:13;;;;;;;1.10;1.10;;;1.10;99.90;;;;;;5074939;28;20314;-69
2022/01/06 07:58:41;;;;;;;1.00;1.00;;;1.20;99.90;;;;;;5074662;28;20291;-68
2022/01/06 08:01:10;;;;;;;1.02;1.02;;;1.20;99.90;;;;;;5074512;28;20694;-68
2022/01/06 08:03:37;;;;;;;1.30;1.30;;;1.20;99.90;;;;;;5074319;28;20263;-68
2022/01/06 08:06:04;;;;;;;1.10;1.10;;;1.30;99.90;;;;;;5074844;28;20306;-68
2022/01/06 08:08:31;;;;;;;0.90;0.90;;;1.30;99.90;;;;;;5074998;28;20263;-68
2022/01/06 08:10:58;;;;;;;1.10;1.10;;;1.30;99.90;;;;;;5075135;28;20283;-68
2022/01/06 08:13:25;;;;;;;1.13;1.13;;;1.30;99.90;;;;;;5074832;28;20287;-68
2022/01/06 08:15:53;;;;;;;1.20;1.20;;;1.40;99.90;;;;;;5075105;28;20318;-68
2022/01/06 08:18:20;;;;;;;1.02;1.02;;;1.40;99.90;;;;;;5074534;28;20704;-68
2022/01/06 08:20:47;;;;;;;1.60;1.20;;;1.40;99.90;;;;;;5074498;28;20311;-68
2022/01/06 08:23:14;;;;;;;0.88;0.88;;;1.50;99.90;;;;;;5074173;28;20210;-68
2022/01/06 08:25:41;;;;;;;1.13;1.13;;;1.50;99.90;;;;;;5074353;28;20220;-69
2022/01/06 08:28:08;;;;;;;1.35;1.35;;;1.60;99.90;;;;;;5074387;28;20283;-68
2022/01/06 08:30:36;;;;;;;1.30;1.30;;;1.60;99.90;;;;;;5074233;28;20199;-68
2022/01/06 08:33:05;;;;;;;1.20;1.20;;;1.50;99.90;;;;;;5077184;28;20207;-68
2022/01/06 08:35:32;;;;;;;1.00;1.00;;;1.60;99.90;;;;;;5077807;28;20235;-68
2022/01/06 08:37:59;;;;;;;1.20;1.10;;;1.60;99.90;;;;;;5078324;28;20224;-68
2022/01/06 08:40:26;;;;;;;1.35;1.35;;;1.60;99.90;;;;;;5078085;28;20242;-68
2022/01/06 08:42:54;;;;;;;1.30;1.20;;;1.60;99.90;;;;;;5078294;28;20199;-68
2022/01/06 08:45:21;;;;;;;1.20;1.20;;;1.60;99.90;;;;;;5078397;28;20231;-68
2022/01/06 08:47:49;;;;;;;1.02;1.02;;;1.70;99.90;;;;;;5078661;28;20196;-68
2022/01/06 08:50:17;;;;;;;1.20;1.20;;;1.70;99.90;;;;;;5076141;28;20253;-68
2022/01/06 08:52:45;;;;;;;1.65;1.55;;;1.80;99.90;;;;;;5073982;28;20350;-68
2022/01/06 08:55:12;;;;;;;1.30;1.30;;;1.80;99.90;;;;;;5074035;28;20220;-68
2022/01/06 08:57:39;;;;;;;1.85;1.75;;;1.80;99.90;;;;;;5073514;28;20758;-68
2022/01/06 09:00:09;;;;;;;1.70;1.70;;;1.80;99.90;;;;;;5073706;28;20310;-68
2022/01/06 09:02:36;;;;;;;1.95;1.80;;;1.90;99.90;;;;;;5073721;28;20254;-68
2022/01/06 09:05:05;;;;;;;1.50;1.40;;;1.90;99.90;;;;;;5073619;28;20286;-68
2022/01/06 09:07:34;;;;;;;1.73;1.63;;;2.00;99.90;;;;;;5073414;28;20698;-67
2022/01/06 09:10:01;;;;;;;1.75;1.65;;;2.00;99.90;;;;;;5073690;28;20632;-68
2022/01/06 09:12:28;;;;;;;1.60;1.60;;;2.10;99.90;;;;;;5073776;28;20246;-68
2022/01/06 09:14:55;;;;;;;1.80;1.77;;;2.20;99.90;;;;;;5072447;28;20717;-68
2022/01/06 09:17:22;;;;;;;1.70;1.60;;;2.30;99.90;;;;;;5073422;28;20303;-68
2022/01/06 09:19:49;;;;;;;1.40;1.30;;;2.40;99.90;;;;;;5073561;28;20226;-68
2022/01/06 09:22:16;;;;;;;1.80;1.65;;;2.60;99.90;;;;;;5073707;28;20295;-68
2022/01/06 09:24:44;;;;;;;1.70;1.60;;;2.70;99.90;;;;;;5073663;28;20295;-68
2022/01/06 09:27:11;;;;;;;1.73;1.58;;;2.90;99.90;;;;;;5073190;28;20689;-67
2022/01/06 09:29:37;;;;;;;1.67;1.67;;;3.10;99.90;;;;;;5073373;28;20635;-68
2022/01/06 09:32:05;;;;;;;1.58;1.52;;;3.30;99.90;;;;;;5073229;28;20734;-68
2022/01/06 09:34:32;;;;;;;1.90;1.80;;;3.40;99.90;;;;;;5073207;28;20286;-68
2022/01/06 09:36:59;;;;;;;2.95;1.63;;;3.50;99.90;;;;;;5072908;28;20635;-70
2022/01/06 09:39:26;;;;;;;2.60;1.60;;;3.50;99.90;;;;;;5073250;28;20196;-69
2022/01/06 09:41:54;;;;;;;1.70;1.60;;;3.50;99.90;;;;;;5073384;28;20316;-68
2022/01/06 09:44:21;;;;;;;1.27;1.27;;;3.60;99.90;;;;;;5073033;28;20739;-69
2022/01/06 09:46:48;;;;;;;1.67;1.58;;;3.70;99.90;;;;;;5073082;28;20311;-69
2022/01/06 09:49:15;;;;;;;1.63;1.63;;;3.90;99.90;;;;;;5073310;28;20282;-69
2022/01/06 09:51:42;;;;;;;1.48;1.48;;;3.90;99.90;;;;;;5073378;28;20282;-67
2022/01/06 09:54:09;;;;;;;1.77;1.77;;;3.90;99.90;;;;;;5073226;28;20288;-69
2022/01/06 09:56:36;;;;;;;1.58;1.58;;;3.90;99.90;;;;;;5072813;28;20306;-70
2022/01/06 09:59:04;;;;;;;1.75;1.70;;;3.80;99.90;;;;;;5073169;28;20222;-70
2022/01/06 10:01:31;;;;;;;1.60;1.52;;;3.80;99.90;;;;;;5073018;28;20310;-69
2022/01/06 10:04:00;;;;;;;1.60;1.60;;;3.70;99.90;;;;;;5073209;28;20286;-69
2022/01/06 10:06:29;;;;;;;1.50;1.40;;;3.70;99.90;;;;;;5073814;28;20208;-70
2022/01/06 10:08:59;;;;;;;1.27;1.27;;;3.60;99.90;;;;;;5073237;28;20199;-69
2022/01/06 10:11:28;;;;;;;1.75;1.63;;;3.50;99.90;;;;;;5073205;28;20184;-69
2022/01/06 10:13:59;;;;;;;1.83;1.73;;;3.50;99.90;;;;;;5073605;28;20204;-69
2022/01/06 10:16:29;;;;;;;1.52;1.45;;;3.40;99.90;;;;;;5072736;28;20286;-68
2022/01/06 10:19:02;;;;;;;1.92;1.70;;;3.30;99.90;;;;;;5073486;28;20188;-68
2022/01/06 10:21:36;;;;;;;1.95;1.85;;;3.20;99.90;;;;;;5073458;28;20220;-68
2022/01/06 10:24:07;;;;;;;1.30;1.30;;;3.10;99.90;;;;;;5072758;28;20187;-68
2022/01/06 10:26:36;;;;;;;1.52;1.48;;;3.10;99.90;;;;;;5074659;28;20634;-71
2022/01/06 10:29:07;;;;;;;1.40;1.40;;;3.00;99.90;;;;;;5076635;28;20204;-71
2022/01/06 10:31:35;;;;;;;1.40;1.40;;;3.00;99.90;;;;;;5076779;28;20200;-69
2022/01/06 10:34:08;;;;;;;1.30;1.30;;;3.00;99.90;;;;;;5076322;28;20291;-69
2022/01/06 10:36:36;;;;;;;1.25;1.25;;;3.00;99.90;;;;;;5075795;28;20220;-70
2022/01/06 10:39:08;;;;;;;1.35;1.33;;;3.00;99.90;;;;;;5075856;28;20306;-70
2022/01/06 10:41:36;;;;;;;1.35;1.35;;;3.00;99.90;;;;;;5076081;28;20211;-69
2022/01/06 10:44:05;;;;;;;1.55;1.38;;;3.00;99.90;;;;;;5076123;28;20659;-68
2022/01/06 10:46:36;;;;;;;1.13;1.13;;;3.00;99.90;;;;;;5075940;28;20219;-67
2022/01/06 10:49:05;;;;;;;1.02;1.02;;;3.00;99.90;;;;;;5075766;28;20274;-69
2022/01/06 10:51:37;;;;;;;1.30;1.20;;;2.90;99.90;;;;;;5075713;28;20287;-68
2022/01/06 10:54:05;;;;;;;1.30;1.20;;;2.90;99.90;;;;;;5075869;28;20230;-69
2022/01/06 10:56:32;;;;;;;1.60;1.50;;;2.80;99.90;;;;;;5075870;28;20306;-69
2022/01/06 10:58:59;;;;;;;1.20;1.20;;;2.70;99.90;;;;;;5075981;28;20291;-69
2022/01/06 11:01:27;;;;;;;1.48;1.33;;;2.70;99.90;;;;;;5075919;28;20247;-69
2022/01/06 11:03:55;;;;;;;1.20;1.10;;;2.60;99.90;;;;;;5075696;28;20572;-69
2022/01/06 11:06:23;;;;;;;1.50;1.50;;;2.70;99.90;;;;;;5075937;28;20259;-69
2022/01/06 11:08:51;;;;;;;1.10;1.10;;;2.70;99.90;;;;;;5075828;28;20346;-70
2022/01/06 11:13:59;;;;;;;1.30;1.25;;;2.70;99.90;;;;;;5074261;28;20205;-74
2022/01/06 11:16:26;;;;;;;1.30;1.30;;;2.70;99.90;;;;;;5079353;28;20362;-74
2022/01/06 11:18:56;;;;;;;1.67;1.60;;;2.80;99.90;;;;;;5079323;28;20711;-72
2022/01/06 11:21:26;;;;;;;1.13;1.02;;;2.90;99.90;;;;;;5077768;28;20251;-69
2022/01/06 11:24:11;;;;;;;0.93;0.93;;;2.90;99.90;;;;;;5075680;28;20290;-69
2022/01/06 11:26:39;;;;;;;0.90;0.90;;;3.00;99.90;;;;;;5075719;28;20307;-68
2022/01/06 11:29:06;;;;;;;1.00;1.00;;;3.00;99.90;;;;;;5075537;28;20306;-68
2022/01/06 11:31:37;;;;;;;0.90;0.90;;;3.00;99.90;;;;;;5075429;28;20286;-68
2022/01/06 11:34:14;;;;;;;0.70;0.70;;;3.10;99.90;;;;;;5075445;28;20279;-68
2022/01/06 11:36:41;;;;;;;0.80;0.80;;;3.10;99.90;;;;;;5075163;28;20789;-68
2022/01/06 11:39:19;;;;;;;1.10;1.10;;;3.20;99.90;;;;;;5074521;28;20196;-68
2022/01/06 11:41:46;;;;;;;1.00;1.00;;;3.30;99.90;;;;;;5075134;28;20290;-68
2022/01/06 11:44:18;;;;;;;1.08;0.93;;;3.30;99.90;;;;;;5075193;28;20291;-68
2022/01/06 11:46:46;;;;;;;0.77;0.77;;;3.40;99.90;;;;;;5074892;28;20227;-68
2022/01/06 11:49:15;;;;;;;0.70;0.70;;;3.50;99.90;;;;;;5075216;28;20301;-68
2022/01/06 11:51:43;;;;;;;0.90;0.90;;;3.70;99.90;;;;;;5074841;28;20287;-68
2022/01/06 11:54:17;;;;;;;0.93;0.93;;;3.80;99.90;;;;;;5075112;28;20294;-68
2022/01/06 11:56:45;;;;;;;1.15;1.15;;;3.80;99.90;;;;;;5074917;28;20228;-68
2022/01/06 11:59:12;;;;;;;1.00;1.00;;;3.80;99.90;;;;;;5074709;28;20693;-68
2022/01/06 12:01:47;;;;;;;0.90;0.90;;;3.80;99.90;;;;;;5074785;28;20306;-68
2022/01/06 12:04:21;;;;;;;1.42;1.40;;;3.70;99.90;;;;;;5074587;28;20694;-68
2022/01/06 12:06:48;;;;;;;1.15;1.15;;;3.70;99.90;;;;;;5074706;28;20307;-68
2022/01/06 12:09:17;;;;;;;1.20;1.20;;;3.60;99.90;;;;;;5074948;28;20202;-68
2022/01/06 12:11:44;;;;;;;1.52;1.50;;;3.50;99.90;;;;;;5074409;28;20294;-68
2022/01/06 12:14:12;;;;;;;1.13;1.13;;;3.50;99.90;;;;;;5074639;28;20287;-69
2022/01/06 12:16:43;;;;;;;1.45;1.35;;;3.50;99.90;;;;;;5074455;28;20231;-69
2022/01/06 12:19:14;;;;;;;1.38;1.08;;;3.60;99.90;;;;;;5074617;28;20188;-68
2022/01/06 12:21:43;;;;;;;1.05;1.05;;;3.70;99.90;;;;;;5074205;28;20766;-68
2022/01/06 12:24:12;;;;;;;1.38;1.27;;;3.70;99.90;;;;;;5074613;28;20286;-68
2022/01/06 12:26:41;;;;;;;1.20;1.20;;;3.70;99.90;;;;;;5074297;28;20657;-69
2022/01/06 12:29:13;;;;;;;1.90;1.58;;;3.60;99.90;;;;;;5074691;28;20295;-70
2022/01/06 12:31:41;;;;;;;1.20;1.20;;;3.50;99.90;;;;;;5099586;22;20267;-70
2022/01/06 19:08:34;;;;;;;3.47;2.60;;;-0.20;99.90;;;;;;5660107;22;20223;-72
2022/01/06 19:11:01;;;;;;;3.38;2.92;;;-0.10;99.90;;;;;;5075692;28;20291;-71
2022/01/06 19:13:31;;;;;;;3.03;2.55;;;-0.10;99.90;;;;;;5075519;28;20724;-71
2022/01/06 19:15:58;;;;;;;3.58;2.97;;;-0.10;99.90;;;;;;5075654;28;20247;-71
2022/01/06 19:18:25;;;;;;;3.47;2.75;;;-0.10;99.90;;;;;;5075150;28;20306;-69
2022/01/06 19:20:53;;;;;;;2.80;2.60;;;-0.20;99.90;;;;;;5075596;28;20291;-70
2022/01/06 19:23:20;;;;;;;2.67;2.47;;;-0.20;99.90;;;;;;5076108;28;20282;-70
2022/01/06 19:25:49;;;;;;;2.20;1.95;;;-0.20;99.90;;;;;;5075555;28;20294;-70
2022/01/06 19:28:16;;;;;;;1.90;1.80;;;-0.30;99.90;;;;;;5076050;28;20310;-70
2022/01/06 19:30:44;;;;;;;2.45;2.20;;;-0.40;99.90;;;;;;5075644;28;20203;-70
2022/01/06 19:33:11;;;;;;;1.75;1.65;;;-0.50;99.90;;;;;;5075810;28;20204;-69
2022/01/06 19:35:38;;;;;;;2.10;2.00;;;-0.50;99.90;;;;;;5075907;28;20242;-70
2022/01/06 19:38:06;;;;;;;1.77;1.67;;;-0.60;99.90;;;;;;5075507;28;20598;-71
2022/01/06 19:40:33;;;;;;;1.90;1.80;;;-0.70;99.90;;;;;;5075480;28;20203;-70
2022/01/06 19:43:02;;;;;;;1.60;1.60;;;-0.70;99.90;;;;;;5075818;28;20231;-70
2022/01/06 19:45:30;;;;;;;1.77;1.67;;;-0.80;99.90;;;;;;5075052;28;20659;-70
2022/01/06 19:47:58;;;;;;;1.63;1.40;;;-0.90;99.90;;;;;;5075010;28;20273;-70
2022/01/06 19:50:27;;;;;;;1.50;1.50;;;-0.90;99.90;;;;;;5075847;28;20302;-70
2022/01/06 19:52:55;;;;;;;1.65;1.55;;;-1.00;99.90;;;;;;5081665;28;20225;-70
2022/01/06 19:55:21;;;;;;;1.90;1.80;;;-1.00;99.90;;;;;;5080560;28;20239;-70
2022/01/06 19:57:48;;;;;;;1.50;1.50;;;-1.10;99.90;;;;;;5074965;28;20219;-70
2022/01/06 20:00:19;;;;;;;1.70;1.60;;;-1.10;99.90;;;;;;5073866;28;20361;-70
2022/01/06 20:02:46;;;;;;;1.38;1.38;;;-1.20;99.90;;;;;;5075347;28;20218;-70
2022/01/06 20:05:13;;;;;;;1.40;1.40;;;-1.20;99.90;;;;;;5075351;28;20206;-70
2022/01/06 20:07:40;;;;;;;1.83;1.80;;;-1.20;99.90;;;;;;5074726;28;20227;-70
2022/01/06 20:10:08;;;;;;;1.60;1.50;;;-1.30;99.90;;;;;;5074376;28;20245;-70
2022/01/06 20:12:35;;;;;;;1.50;1.50;;;-1.30;99.90;;;;;;5075039;28;20204;-70
2022/01/06 20:15:02;;;;;;;1.23;1.20;;;-1.30;99.90;;;;;;5074620;28;20605;-70
2022/01/06 20:17:33;;;;;;;1.52;1.52;;;-1.30;99.90;;;;;;5074425;28;20200;-71
2022/01/06 20:20:01;;;;;;;1.50;1.50;;;-1.30;99.90;;;;;;5074334;28;20192;-71
2022/01/06 20:22:31;;;;;;;1.70;1.70;;;-1.30;99.90;;;;;;5074180;28;20263;-71
2022/01/06 20:24:58;;;;;;;1.77;1.77;;;-1.30;99.90;;;;;;5074372;28;20203;-71
2022/01/06 20:27:25;;;;;;;1.33;1.33;;;-1.30;99.90;;;;;;5074640;28;20292;-71
2022/01/06 20:29:52;;;;;;;1.50;1.40;;;-1.30;99.90;;;;;;5074446;28;20246;-70
2022/01/06 20:32:21;;;;;;;1.48;1.40;;;-1.30;99.90;;;;;;5074304;28;20278;-71
2022/01/06 20:34:49;;;;;;;1.50;1.50;;;-1.30;99.90;;;;;;5073951;28;20243;-71
2022/01/06 20:37:17;;;;;;;1.27;1.27;;;-1.30;99.90;;;;;;5073875;28;20253;-71
2022/01/06 20:39:47;;;;;;;1.42;1.42;;;-1.30;99.90;;;;;;5073915;28;20295;-70
2022/01/06 20:42:14;;;;;;;1.75;1.70;;;-1.20;99.90;;;;;;5073636;28;20748;-70
2022/01/06 20:44:41;;;;;;;1.77;1.67;;;-1.20;99.90;;;;;;5074515;28;20291;-74
2022/01/06 20:47:14;;;;;;;1.88;1.77;;;-1.20;99.90;;;;;;5074517;28;20307;-73
2022/01/06 20:52:27;;;;;;;1.70;1.63;;;-1.10;99.90;;;;;;5074047;28;20588;-71
2022/01/06 20:54:54;;;;;;;1.55;1.55;;;-1.00;99.90;;;;;;5074104;28;20290;-72
2022/01/06 20:57:21;;;;;;;2.08;2.00;;;-1.00;99.90;;;;;;5073873;28;20291;-69
2022/01/06 20:59:48;;;;;;;2.05;1.95;;;-1.00;99.90;;;;;;5073608;28;20262;-69
2022/01/06 21:02:15;;;;;;;2.10;2.00;;;-1.00;99.90;;;;;;5073375;28;20311;-70
2022/01/06 21:04:42;;;;;;;2.35;1.73;;;-1.00;99.90;;;;;;5073995;28;20283;-70
2022/01/06 21:07:09;;;;;;;1.75;1.65;;;-0.90;99.90;;;;;;5073661;28;20254;-71
2022/01/06 21:09:40;;;;;;;2.33;2.22;;;-0.90;99.90;;;;;;5073291;28;20817;-70
2022/01/06 21:12:12;;;;;;;2.45;2.35;;;-0.90;99.90;;;;;;5073691;28;20275;-70
2022/01/06 21:14:39;;;;;;;2.63;2.53;;;-0.90;99.90;;;;;;5073449;28;20596;-70
2022/01/06 21:17:07;;;;;;;2.40;2.20;;;-0.90;99.90;;;;;;5073709;28;20286;-71
2022/01/06 21:19:34;;;;;;;2.80;2.20;;;-0.80;99.90;;;;;;5073691;28;20224;-72
2022/01/06 21:22:01;;;;;;;2.50;2.40;;;-0.80;99.90;;;;;;5073572;28;20247;-72
2022/01/06 21:24:28;;;;;;;2.38;2.28;;;-0.80;99.90;;;;;;5073828;28;20369;-72
2022/01/06 21:26:56;;;;;;;2.63;2.42;;;-0.80;99.90;;;;;;5073889;28;20282;-73
2022/01/06 21:29:23;;;;;;;4.80;3.85;;;-0.80;99.90;;;;;;5073798;28;20314;-72
2022/01/06 21:31:50;;;;;;;5.85;3.90;;;-0.80;99.90;;;;;;5073532;28;20245;-73
2022/01/06 21:34:17;;;;;;;3.92;3.15;;;-0.80;99.90;;;;;;5073680;28;20290;-73
2022/01/06 21:36:44;;;;;;;3.60;3.28;;;-0.80;99.90;;;;;;5073873;28;20200;-72
2022/01/06 21:39:11;;;;;;;3.15;2.92;;;-0.80;99.90;;;;;;5073679;28;20706;-74
2022/01/06 21:41:38;;;;;;;3.70;3.30;;;-0.80;99.90;;;;;;5073342;28;20196;-72
2022/01/06 21:44:07;;;;;;;3.50;3.30;;;-0.70;99.90;;;;;;5073207;28;20231;-71
2022/01/06 21:46:34;;;;;;;4.00;3.55;;;-0.70;99.90;;;;;;5073374;28;20605;-71
2022/01/06 21:49:01;;;;;;;3.70;3.40;;;-0.70;99.90;;;;;;5073505;28;20321;-70
2022/01/06 21:51:28;;;;;;;4.05;3.70;;;-0.70;99.90;;;;;;5073233;28;20565;-71
2022/01/06 21:53:55;;;;;;;4.07;3.75;;;-0.70;99.90;;;;;;5073413;28;20207;-71
2022/01/06 21:56:22;;;;;;;3.38;3.17;;;-0.70;99.90;;;;;;5073539;28;20278;-71
2022/01/06 21:58:50;;;;;;;3.90;3.55;;;-0.70;99.90;;;;;;5073639;28;20234;-72
2022/01/06 22:01:19;;;;;;;4.55;4.15;;;-0.70;99.90;;;;;;5073284;28;20208;-71
2022/01/06 22:03:46;;;;;;;6.35;4.50;;;-0.70;99.90;;;;;;5073821;28;20251;-71
2022/01/06 22:06:13;;;;;;;4.90;3.92;;;-0.60;99.90;;;;;;5073658;28;20287;-71
2022/01/06 22:08:41;;;;;;;6.57;5.00;;;-0.60;99.90;;;;;;5073373;28;20306;-71
2022/01/06 22:11:08;;;;;;;5.80;5.20;;;-0.70;99.90;;;;;;5073336;28;20207;-71
2022/01/06 22:13:35;;;;;;;5.85;5.22;;;-0.70;99.90;;;;;;5073231;28;20282;-71
2022/01/06 22:16:02;;;;;;;5.82;4.63;;;-0.70;99.90;;;;;;5073156;28;20211;-71
2022/01/06 22:18:30;;;;;;;5.38;4.85;;;-0.70;99.90;;;;;;5073221;28;20273;-72
2022/01/06 22:20:57;;;;;;;8.13;5.55;;;-0.70;99.90;;;;;;5073492;28;20291;-71
2022/01/06 22:23:24;;;;;;;6.95;5.20;;;-0.70;99.90;;;;;;5075984;28;20315;-72
2022/01/06 22:25:51;;;;;;;5.65;5.05;;;-0.70;99.90;;;;;;5076729;28;20278;-70
2022/01/06 22:28:18;;;;;;;6.88;5.57;;;-0.70;99.90;;;;;;5076848;28;20307;-71
2022/01/06 22:30:45;;;;;;;5.18;4.40;;;-0.80;99.90;;;;;;5076805;28;20302;-71
2022/01/06 22:33:13;;;;;;;6.55;5.18;;;-0.80;99.90;;;;;;5076808;28;20203;-71
2022/01/06 22:35:44;;;;;;;4.53;4.10;;;-0.70;99.90;;;;;;5076675;28;20298;-71
2022/01/06 22:38:11;;;;;;;5.47;4.40;;;-0.80;99.90;;;;;;5076631;28;20220;-71
2022/01/06 22:40:39;;;;;;;7.10;4.88;;;-0.70;99.90;;;;;;5076519;28;20287;-71
2022/01/06 22:43:06;;;;;;;4.70;4.22;;;-0.70;99.90;;;;;;5076698;28;20215;-71
2022/01/06 22:45:33;;;;;;;4.63;4.22;;;-0.70;99.90;;;;;;5076491;28;20287;-72
2022/01/06 22:48:00;;;;;;;4.72;4.15;;;-0.70;99.90;;;;;;5075797;28;20255;-71
2022/01/06 22:50:27;;;;;;;6.05;4.93;;;-0.70;99.90;;;;;;5076102;28;20286;-71
2022/01/06 22:52:57;;;;;;;6.30;5.35;;;-0.70;99.90;;;;;;5076056;28;20266;-70
2022/01/06 22:55:24;;;;;;;5.38;3.90;;;-0.80;99.90;;;;;;5075972;28;20303;-70
2022/01/06 22:57:50;;;;;;;8.02;5.97;;;-0.80;99.90;;;;;;5076061;28;20320;-71
2022/01/06 23:00:23;;;;;;;10.02;7.05;;;-0.90;99.90;;;;;;5075848;28;20633;-70
2022/01/06 23:02:51;;;;;;;11.57;7.93;;;-1.00;99.90;;;;;;5076146;28;20271;-70
2022/01/06 23:05:18;;;;;;;11.07;7.82;;;-1.10;99.90;;;;;;5076132;28;20257;-70
2022/01/06 23:07:45;;;;;;;10.18;7.32;;;-1.10;99.90;;;;;;5076205;28;20239;-70
2022/01/06 23:10:13;;;;;;;7.93;6.63;;;-1.20;99.90;;;;;;5075914;28;20239;-70
2022/01/06 23:12:41;;;;;;;8.52;6.57;;;-1.20;99.90;;;;;;5076087;28;20283;-72
2022/01/06 23:15:09;;;;;;;9.35;6.53;;;-1.30;99.90;;;;;;5075977;28;20291;-70
2022/01/06 23:17:36;;;;;;;8.77;6.32;;;-1.20;99.90;;;;;;5076012;28;20287;-70
2022/01/06 23:20:04;;;;;;;7.95;6.55;;;-1.20;99.90;;;;;;5075694;28;20206;-70
2022/01/06 23:22:31;;;;;;;11.02;7.18;;;-1.30;99.90;;;;;;5075820;28;20306;-70
2022/01/06 23:24:58;;;;;;;10.63;7.32;;;-1.30;99.90;;;;;;5075749;28;20295;-70
2022/01/06 23:27:27;;;;;;;10.93;7.60;;;-1.40;99.90;;;;;;5075875;28;20290;-70
2022/01/06 23:29:54;;;;;;;9.93;7.55;;;-1.40;99.90;;;;;;5076143;28;20613;-70
2022/01/06 23:32:21;;;;;;;16.15;9.35;;;-1.50;99.90;;;;;;5075496;28;20291;-70
2022/01/06 23:34:48;;;;;;;11.40;8.30;;;-1.50;99.90;;;;;;5074380;28;20286;-70
2022/01/06 23:37:15;;;;;;;10.30;7.25;;;-1.50;99.90;;;;;;5075570;28;20200;-70
2022/01/06 23:39:42;;;;;;;12.07;7.97;;;-1.50;99.90;;;;;;5075241;28;20307;-71
2022/01/06 23:42:09;;;;;;;14.43;8.70;;;-1.50;99.90;;;;;;5076113;28;20204;-71
2022/01/06 23:44:37;;;;;;;12.23;8.68;;;-1.50;99.90;;;;;;5075316;28;20339;-71
2022/01/06 23:47:05;;;;;;;12.90;8.02;;;-1.50;99.90;;;;;;5075329;28;20231;-71
2022/01/06 23:49:32;;;;;;;13.45;8.30;;;-1.50;99.90;;;;;;5075051;28;20723;-71
2022/01/06 23:51:59;;;;;;;13.23;8.45;;;-1.50;99.90;;;;;;5075055;28;20204;-71
2022/01/06 23:54:26;;;;;;;12.60;8.00;;;-1.60;99.90;;;;;;5075420;28;20295;-71
2022/01/06 23:56:54;;;;;;;9.70;7.53;;;-1.60;99.90;;;;;;5075486;28;20287;-71
2022/01/06 23:59:23;;;;;;;9.57;6.32;;;-1.60;99.90;;;;;;5075359;28;20285;-71
